Time;durP1;ratioP1;P1;durP2;ratioP2;P2;SDS_P1;SDS_P2;PMS_P1;PMS_P2;Temp;Humidity;BMP_temperature;BMP_pressure;BME280_temperature;BME280_humidity;BME280_pressure;Samples;Min_cycle;Max_cycle;Signal;HPM_P1;HPM_P2
2021/10/28 00:14:01;;;;;;;;;;;11.00;99.90;;;;;;5015859;28;19917;-79
2021/10/28 00:16:30;;;;;;;;;;;10.90;99.90;;;;;;5016243;28;19906;-79
2021/10/28 00:19:03;;;;;;;;;;;11.10;99.90;;;;;;5014761;28;19913;-79
2021/10/28 00:21:36;;;;;;;;;;;11.10;99.90;;;;;;5016221;28;19905;-79
2021/10/28 00:24:04;;;;;;;;;;;11.20;99.90;;;;;;5016037;28;19913;-79
2021/10/28 00:26:34;;;;;;;;;;;11.30;99.90;;;;;;5016393;28;19963;-79
2021/10/28 00:29:01;;;;;;;;;;;11.30;99.90;;;;;;5016103;28;19988;-79
2021/10/28 00:31:29;;;;;;;;;;;11.30;99.90;;;;;;5015994;28;19967;-78
2021/10/28 00:33:55;;;;;;;;;;;11.20;99.90;;;;;;5015876;28;19909;-79
2021/10/28 00:36:21;;;;;;;;;;;11.30;99.90;;;;;;5015715;28;19912;-78
2021/10/28 00:38:48;;;;;;;;;;;11.30;99.90;;;;;;5016018;28;19906;-79
2021/10/28 00:41:14;;;;;;;;;;;11.40;99.90;;;;;;5014399;28;19916;-80
2021/10/28 00:43:45;;;;;;;;;;;11.30;99.90;;;;;;5015647;28;20388;-78
2021/10/28 00:46:11;;;;;;;;;;;11.30;99.90;;;;;;5014110;28;20361;-78
2021/10/28 00:48:37;;;;;;;;;;;11.30;99.90;;;;;;5015611;28;20254;-78
2021/10/28 00:51:06;;;;;;;;;;;11.30;99.90;;;;;;5015917;28;19915;-79
2021/10/28 00:53:32;;;;;;;;;;;11.30;99.90;;;;;;5015230;28;19917;-80
2021/10/28 00:55:58;;;;;;;;;;;11.40;99.90;;;;;;5015398;28;19992;-78
2021/10/28 00:58:24;;;;;;;;;;;11.40;99.90;;;;;;5015433;28;19936;-78
2021/10/28 01:00:50;;;;;;;;;;;11.40;99.90;;;;;;5015288;28;20362;-79
2021/10/28 01:03:16;;;;;;;;;;;11.50;99.90;;;;;;5015428;28;19912;-80
2021/10/28 01:05:42;;;;;;;;;;;11.40;99.90;;;;;;5015256;28;20004;-78
2021/10/28 01:08:08;;;;;;;;;;;11.50;99.90;;;;;;5015151;28;19933;-80
2021/10/28 01:10:34;;;;;;;;;;;11.40;99.90;;;;;;5014731;28;19933;-80
2021/10/28 01:12:59;;;;;;;;;;;11.50;99.90;;;;;;5015071;28;19935;-78
2021/10/28 01:15:25;;;;;;;;;;;11.50;99.90;;;;;;5014780;28;20000;-79
2021/10/28 01:17:51;;;;;;;;;;;11.50;99.90;;;;;;5015004;28;19905;-78
2021/10/28 01:20:16;;;;;;;;;;;11.50;99.90;;;;;;5014862;28;19905;-78
2021/10/28 01:22:43;;;;;;;;;;;11.60;99.90;;;;;;5013709;28;19992;-79
2021/10/28 01:25:10;;;;;;;;;;;11.60;99.90;;;;;;5014308;28;19912;-78
2021/10/28 01:27:36;;;;;;;;;;;11.50;99.90;;;;;;5014686;28;19905;-77
2021/10/28 01:30:01;;;;;;;;;;;11.60;99.90;;;;;;5013740;28;19912;-78
2021/10/28 01:32:30;;;;;;;;;;;11.70;99.90;;;;;;5014958;28;19905;-78
2021/10/28 01:34:55;;;;;;;;;;;11.70;99.90;;;;;;5014552;28;19916;-78
2021/10/28 01:37:21;;;;;;;;;;;11.70;99.90;;;;;;5013470;28;19906;-78
2021/10/28 01:39:47;;;;;;;;;;;11.80;99.90;;;;;;5013245;28;20374;-78
2021/10/28 01:42:13;;;;;;;;;;;11.70;99.90;;;;;;5014757;28;19905;-78
2021/10/28 01:44:38;;;;;;;;;;;11.70;99.90;;;;;;5014591;28;19941;-78
2021/10/28 01:47:04;;;;;;;;;;;11.70;99.90;;;;;;5014464;28;19905;-80
2021/10/28 01:49:30;;;;;;;;;;;11.70;99.90;;;;;;5014558;28;19905;-79
2021/10/28 01:51:56;;;;;;;;;;;11.80;99.90;;;;;;5014429;28;19959;-78
2021/10/28 01:54:23;;;;;;;;;;;11.70;99.90;;;;;;5013222;28;19910;-78
2021/10/28 01:56:50;;;;;;;;;;;11.70;99.90;;;;;;5014530;28;19912;-77
2021/10/28 01:59:15;;;;;;;;;;;11.60;99.90;;;;;;5014938;28;19988;-78
2021/10/28 02:01:41;;;;;;;;;;;11.60;99.90;;;;;;5014703;28;19991;-78
2021/10/28 02:04:07;;;;;;;;;;;11.50;99.90;;;;;;5014913;28;19952;-79
2021/10/28 02:06:33;;;;;;;;;;;11.50;99.90;;;;;;5013528;28;19959;-78
2021/10/28 02:08:59;;;;;;;;;;;11.40;99.90;;;;;;5014460;28;20267;-79
2021/10/28 02:11:25;;;;;;;;;;;11.30;99.90;;;;;;5014368;28;19955;-79
2021/10/28 02:13:50;;;;;;;;;;;11.30;99.90;;;;;;5014280;28;19914;-78
2021/10/28 02:16:16;;;;;;;;;;;11.20;99.90;;;;;;5014085;28;19955;-79
2021/10/28 02:18:41;;;;;;;;;;;11.20;99.90;;;;;;5014081;28;20366;-79
2021/10/28 02:21:07;;;;;;;;;;;11.20;99.90;;;;;;5012812;28;19906;-79
2021/10/28 02:23:34;;;;;;;;;;;11.20;99.90;;;;;;5014081;28;20526;-80
2021/10/28 02:25:59;;;;;;;;;;;11.20;99.90;;;;;;5012800;28;19905;-78
2021/10/28 02:28:25;;;;;;;;;;;11.20;99.90;;;;;;5013937;28;19905;-79
2021/10/28 02:30:50;;;;;;;;;;;11.20;99.90;;;;;;5012728;28;19969;-80
2021/10/28 02:33:16;;;;;;;;;;;11.30;99.90;;;;;;5013999;28;20003;-78
2021/10/28 02:35:42;;;;;;;;;;;11.30;99.90;;;;;;5014354;28;19909;-78
2021/10/28 02:38:07;;;;;;;;;;;11.40;99.90;;;;;;5015777;28;19913;-78
2021/10/28 02:40:33;;;;;;;;;;;11.40;99.90;;;;;;5017841;28;19932;-78
2021/10/28 02:42:59;;;;;;;;;;;11.40;99.90;;;;;;5017811;28;19906;-78
2021/10/28 02:45:25;;;;;;;;;;;11.30;99.90;;;;;;5018083;28;19906;-78
2021/10/28 02:47:51;;;;;;;;;;;11.20;99.90;;;;;;5018229;28;19967;-77
2021/10/28 02:50:17;;;;;;;;;;;11.20;99.90;;;;;;5017721;28;19993;-79
2021/10/28 02:52:42;;;;;;;;;;;11.20;99.90;;;;;;5017886;28;19948;-79
2021/10/28 02:55:08;;;;;;;;;;;11.20;99.90;;;;;;5017737;28;19924;-78
2021/10/28 02:57:34;;;;;;;;;;;11.20;99.90;;;;;;5017551;28;19910;-77
2021/10/28 02:59:59;;;;;;;;;;;11.20;99.90;;;;;;5017492;28;20285;-78
2021/10/28 03:02:25;;;;;;;;;;;11.30;99.90;;;;;;5017541;28;20293;-78
2021/10/28 03:04:51;;;;;;;;;;;11.30;99.90;;;;;;5017403;28;19906;-78
2021/10/28 03:07:17;;;;;;;;;;;11.40;99.90;;;;;;5017349;28;19913;-78
2021/10/28 03:09:42;;;;;;;;;;;11.40;99.90;;;;;;5017215;28;19918;-78
2021/10/28 03:12:09;;;;;;;;;;;11.40;99.90;;;;;;5017332;28;20385;-77
2021/10/28 03:27:42;;;;;;;;;;;11.60;99.90;;;;;;5017034;28;19911;-79
2021/10/28 03:30:08;;;;;;;;;;;11.50;99.90;;;;;;5017192;28;19906;-78
2021/10/28 03:32:34;;;;;;;;;;;11.40;99.90;;;;;;5017107;28;19965;-78
2021/10/28 03:35:00;;;;;;;;;;;11.50;99.90;;;;;;5017432;28;20007;-79
2021/10/28 03:37:41;;;;;;;;;;;11.40;99.90;;;;;;5016882;28;19913;-79
2021/10/28 04:30:15;;;;;;;;;;;11.30;99.90;;;;;;5016365;28;19906;-79
2021/10/28 04:32:41;;;;;;;;;;;11.20;99.90;;;;;;5016102;28;20415;-78
2021/10/28 04:35:10;;;;;;;;;;;11.10;99.90;;;;;;5015748;28;19909;-78
2021/10/28 04:37:38;;;;;;;;;;;11.00;99.90;;;;;;5015986;28;20004;-80
2021/10/28 04:40:05;;;;;;;;;;;10.90;99.90;;;;;;5015972;28;20000;-78
2021/10/28 04:42:31;;;;;;;;;;;10.80;99.90;;;;;;5014457;28;19906;-79
2021/10/28 04:44:56;;;;;;;;;;;10.70;99.90;;;;;;5014528;28;19909;-79
2021/10/28 04:47:22;;;;;;;;;;;10.70;99.90;;;;;;5015523;28;19906;-77
2021/10/28 04:49:47;;;;;;;;;;;10.70;99.90;;;;;;5015675;28;19906;-77
2021/10/28 04:52:13;;;;;;;;;;;10.60;99.90;;;;;;5015412;28;19909;-78
2021/10/28 04:54:39;;;;;;;;;;;10.60;99.90;;;;;;5015420;28;19980;-78
2021/10/28 04:57:05;;;;;;;;;;;10.50;99.90;;;;;;5014173;28;19912;-77
2021/10/28 04:59:31;;;;;;;;;;;10.50;99.90;;;;;;5013883;28;19928;-80
2021/10/28 05:01:57;;;;;;;;;;;10.50;99.90;;;;;;5014582;28;19909;-80
2021/10/28 05:04:23;;;;;;;;;;;10.40;99.90;;;;;;5015368;28;19912;-79
2021/10/28 05:06:49;;;;;;;;;;;10.40;99.90;;;;;;5015286;28;19905;-80
2021/10/28 05:09:22;;;;;;;;;;;10.30;99.90;;;;;;5015058;28;19924;-78
2021/10/28 05:11:47;;;;;;;;;;;10.20;99.90;;;;;;5013708;28;20336;-78
2021/10/28 05:14:13;;;;;;;;;;;10.10;99.90;;;;;;5015049;28;19917;-79
2021/10/28 05:16:39;;;;;;;;;;;10.00;99.90;;;;;;5013800;28;19913;-79
2021/10/28 05:19:05;;;;;;;;;;;9.80;99.90;;;;;;5015465;28;19905;-78
2021/10/28 05:21:31;;;;;;;;;;;10.00;99.90;;;;;;5015412;28;19906;-80
2021/10/28 05:23:56;;;;;;;;;;;10.10;99.90;;;;;;5013697;28;19905;-79
2021/10/28 05:26:22;;;;;;;;;;;10.00;99.90;;;;;;5014895;28;19906;-78
2021/10/28 05:28:48;;;;;;;;;;;10.00;99.90;;;;;;5014815;28;19912;-79
2021/10/28 05:31:14;;;;;;;;;;;9.80;99.90;;;;;;5013556;28;19909;-77
2021/10/28 05:33:39;;;;;;;;;;;9.70;99.90;;;;;;5015093;28;19905;-79
2021/10/28 05:36:05;;;;;;;;;;;9.70;99.90;;;;;;5014717;28;20271;-78
2021/10/28 05:38:31;;;;;;;;;;;9.70;99.90;;;;;;5014774;28;19906;-78
2021/10/28 05:40:56;;;;;;;;;;;9.60;99.90;;;;;;5014750;28;19905;-79
2021/10/28 05:43:22;;;;;;;;;;;9.60;99.90;;;;;;5015139;28;19933;-80
2021/10/28 05:45:49;;;;;;;;;;;9.50;99.90;;;;;;5014643;28;19906;-78
2021/10/28 05:48:14;;;;;;;;;;;9.40;99.90;;;;;;5014517;28;19906;-79
2021/10/28 05:50:41;;;;;;;;;;;9.30;99.90;;;;;;5014275;28;20412;-79
2021/10/28 05:53:08;;;;;;;;;;;9.30;99.90;;;;;;5014435;28;19912;-80
2021/10/28 05:55:34;;;;;;;;;;;9.30;99.90;;;;;;5014353;28;19921;-79
2021/10/28 05:57:59;;;;;;;;;;;9.30;99.90;;;;;;5013091;28;19906;-78
2021/10/28 06:00:25;;;;;;;;;;;9.20;99.90;;;;;;5014242;28;19929;-78
2021/10/28 06:02:51;;;;;;;;;;;9.10;99.90;;;;;;5014314;28;19906;-77
2021/10/28 06:05:17;;;;;;;;;;;9.20;99.90;;;;;;5012906;28;20357;-77
2021/10/28 06:07:43;;;;;;;;;;;9.20;99.90;;;;;;5014349;28;19905;-79
2021/10/28 06:10:11;;;;;;;;;;;9.30;99.90;;;;;;5014125;28;19921;-78
2021/10/28 06:12:39;;;;;;;;;;;9.40;99.90;;;;;;5013930;28;19912;-78
2021/10/28 06:15:06;;;;;;;;;;;9.40;99.90;;;;;;5014110;28;19949;-78
2021/10/28 06:17:43;;;;;;;;;;;9.40;99.90;;;;;;5014456;28;19949;-78
2021/10/28 06:20:09;;;;;;;;;;;9.30;99.90;;;;;;5012699;28;19906;-79
2021/10/28 06:22:35;;;;;;;;;;;9.40;99.90;;;;;;5014033;28;20358;-79
2021/10/28 06:25:00;;;;;;;;;;;9.40;99.90;;;;;;5014065;28;19937;-79
2021/10/28 06:27:26;;;;;;;;;;;9.40;99.90;;;;;;5014145;28;19905;-80
2021/10/28 06:29:52;;;;;;;;;;;9.40;99.90;;;;;;5013789;28;19975;-80
2021/10/28 06:32:17;;;;;;;;;;;9.30;99.90;;;;;;5014076;28;19959;-78
2021/10/28 06:34:45;;;;;;;;;;;9.30;99.90;;;;;;5013947;28;20271;-79
2021/10/28 06:37:11;;;;;;;;;;;9.50;99.90;;;;;;5014022;28;19967;-77
2021/10/28 06:39:37;;;;;;;;;;;9.40;99.90;;;;;;5014016;28;20392;-78
2021/10/28 06:42:03;;;;;;;;;;;9.40;99.90;;;;;;5014016;28;19912;-79
2021/10/28 06:44:29;;;;;;;;;;;9.50;99.90;;;;;;5012529;28;19905;-79
2021/10/28 06:46:55;;;;;;;;;;;9.40;99.90;;;;;;5013911;28;19906;-78
2021/10/28 06:49:21;;;;;;;;;;;9.40;99.90;;;;;;5013928;28;19906;-78
2021/10/28 06:51:47;;;;;;;;;;;9.60;99.90;;;;;;5013777;28;20389;-78
2021/10/28 06:54:26;;;;;;;;;;;9.60;99.90;;;;;;5012423;28;20008;-79
2021/10/28 06:57:15;;;;;;;;;;;9.60;99.90;;;;;;5014027;28;20336;-77
2021/10/28 07:02:37;;;;;;;;;;;9.60;99.90;;;;;;5013810;28;20352;-78
2021/10/28 07:05:04;;;;;;;;;;;9.70;99.90;;;;;;5014289;28;20255;-79
2021/10/28 07:07:30;;;;;;;;;;;9.70;99.90;;;;;;5013784;28;19952;-79
2021/10/28 07:10:09;;;;;;;;;;;9.60;99.90;;;;;;5013653;28;20416;-80
2021/10/28 07:12:46;;;;;;;;;;;9.60;99.90;;;;;;5012191;28;19906;-80
2021/10/28 07:30:06;;;;;;;;;;;10.00;99.90;;;;;;5017267;28;19971;-80
2021/10/28 07:54:56;;;;;;;;;;;10.10;99.90;;;;;;5016839;28;20259;-78
2021/10/28 08:15:09;;;;;;;;;;;10.30;99.90;;;;;;5015935;28;20313;-78
2021/10/28 08:20:07;;;;;;;;;;;10.20;99.90;;;;;;5016129;28;19913;-80
2021/10/28 08:22:39;;;;;;;;;;;10.50;99.90;;;;;;5015951;28;20283;-78
2021/10/28 08:30:33;;;;;;;;;;;10.80;99.90;;;;;;5015809;28;20007;-80
2021/10/28 08:32:59;;;;;;;;;;;10.80;99.90;;;;;;5014661;28;19940;-78
2021/10/28 08:35:25;;;;;;;;;;;11.00;99.90;;;;;;5015550;28;20428;-79
2021/10/28 08:37:55;;;;;;;;;;;11.30;99.90;;;;;;5014548;28;20388;-78
2021/10/28 08:40:21;;;;;;;;;;;11.40;99.90;;;;;;5015726;28;19913;-79
2021/10/28 08:42:47;;;;;;;;;;;11.80;99.90;;;;;;5016037;28;20370;-79
2021/10/28 08:45:15;;;;;;;;;;;11.90;99.90;;;;;;5015716;28;19913;-78
2021/10/28 08:47:46;;;;;;;;;;;12.10;99.90;;;;;;5015626;28;19905;-80
2021/10/28 08:50:18;;;;;;;;;;;12.20;99.90;;;;;;5015841;28;19911;-80
2021/10/28 08:53:14;;;;;;;;;;;12.20;99.90;;;;;;5015740;28;20004;-80
2021/10/28 08:55:44;;;;;;;;;;;12.40;99.90;;;;;;5014290;28;19909;-80
2021/10/28 09:26:51;;;;;;;;;;;18.20;99.90;;;;;;4993327;28;19960;-79
2021/10/28 09:31:59;;;;;;;;;;;19.50;96.60;;;;;;4979920;28;20000;-79
2021/10/28 09:35:13;;;;;;;;;;;19.10;96.40;;;;;;5013137;28;20373;-80
2021/10/28 09:45:31;;;;;;;;;;;22.30;87.30;;;;;;5014432;28;20282;-79
2021/10/28 09:50:37;;;;;;;;;;;22.00;86.10;;;;;;5014924;28;20001;-80
2021/10/28 09:53:11;;;;;;;;;;;22.50;85.00;;;;;;5014866;28;19909;-80
2021/10/28 09:58:42;;;;;;;;;;;23.00;83.40;;;;;;5014816;28;20424;-80
2021/10/28 10:01:28;;;;;;;;;;;23.30;79.70;;;;;;5024155;28;19912;-80
2021/10/28 10:03:58;;;;;;;;;;;24.10;77.80;;;;;;5014382;28;19955;-80
2021/10/28 10:06:26;;;;;;;;;;;23.50;78.10;;;;;;5014819;28;19928;-80
2021/10/28 10:08:52;;;;;;;;;;;23.30;77.10;;;;;;5014122;28;20404;-80
2021/10/28 10:11:23;;;;;;;;;;;23.10;77.40;;;;;;5014641;28;19906;-79
2021/10/28 10:13:49;;;;;;;;;;;22.50;78.40;;;;;;5014393;28;20358;-80
2021/10/28 10:16:15;;;;;;;;;;;22.90;79.60;;;;;;5014354;28;19906;-81
2021/10/28 10:18:41;;;;;;;;;;;24.00;78.80;;;;;;5014293;28;20346;-80
2021/10/28 11:05:41;;;;;;;;;;;27.80;65.00;;;;;;5017687;28;19972;-79
2021/10/28 11:31:11;;;;;;;;;;;27.20;62.10;;;;;;5017027;28;19912;-78
2021/10/28 12:25:46;;;;;;;;;;;31.90;50.60;;;;;;5016071;28;19920;-78
2021/10/28 12:45:57;;;;;;;;;;;31.00;50.90;;;;;;5015193;28;20276;-79
2021/10/28 12:51:06;;;;;;;;;;;30.50;51.00;;;;;;5015306;28;19960;-79
2021/10/28 13:04:52;;;;;;;;;;;30.10;51.00;;;;;;5015410;28;19905;-79
2021/10/28 13:48:53;;;;;;;;;;;27.70;59.40;;;;;;5014376;28;19936;-77
2021/10/28 14:16:15;;;;;;;;;;;28.40;54.80;;;;;;5013747;28;19959;-77
2021/10/28 15:27:37;;;;;;;;;;;21.80;68.90;;;;;;5017539;28;19956;-77
2021/10/28 15:28:09;;;;;;;;;;;22.10;67.30;;;;;;5016678;28;19913;-79
2021/10/28 15:32:04;;;;;;;;;;;23.80;64.70;;;;;;5015405;28;19909;-78
2021/10/28 15:41:42;;;;;;;;;;;21.70;69.20;;;;;;5016417;28;19909;-78
2021/10/28 15:57:23;;;;;;;;;;;19.10;77.70;;;;;;5016128;28;19911;-77
2021/10/28 16:24:19;;;;;;;;;;;17.70;91.40;;;;;;5015550;28;19921;-77
2021/10/28 16:26:45;;;;;;;;;;;17.70;91.70;;;;;;5016177;28;19992;-78
2021/10/28 16:29:12;;;;;;;;;;;17.50;92.30;;;;;;5016059;28;19952;-77
2021/10/28 16:31:39;;;;;;;;;;;17.40;93.30;;;;;;5015709;28;19940;-78
2021/10/28 16:34:05;;;;;;;;;;;17.20;94.30;;;;;;5014236;28;20325;-77
2021/10/28 16:36:31;;;;;;;;;;;17.10;95.10;;;;;;5014355;28;19906;-77
2021/10/28 16:38:58;;;;;;;;;;;17.10;95.70;;;;;;5015493;28;20423;-78
2021/10/28 16:41:24;;;;;;;;;;;17.00;96.20;;;;;;5015509;28;20392;-78
2021/10/28 16:43:49;;;;;;;;;;;17.00;97.00;;;;;;5015528;28;19913;-78
2021/10/28 16:46:15;;;;;;;;;;;17.00;97.20;;;;;;5015469;28;19905;-77
2021/10/28 16:48:41;;;;;;;;;;;16.90;97.60;;;;;;5014128;28;20309;-77
2021/10/28 16:51:06;;;;;;;;;;;16.70;98.00;;;;;;5014062;28;19913;-78
2021/10/28 16:53:33;;;;;;;;;;;16.70;98.50;;;;;;5015282;28;19905;-77
2021/10/28 16:55:59;;;;;;;;;;;16.50;99.40;;;;;;5013804;28;20405;-77
2021/10/28 16:58:25;;;;;;;;;;;16.30;99.90;;;;;;5013911;28;19916;-76
2021/10/28 17:00:51;;;;;;;;;;;16.30;99.90;;;;;;5015197;28;19905;-76
2021/10/28 17:03:17;;;;;;;;;;;16.20;99.90;;;;;;5015269;28;19956;-77
2021/10/28 17:05:43;;;;;;;;;;;16.10;99.90;;;;;;5015284;28;19906;-78
2021/10/28 17:08:09;;;;;;;;;;;16.10;99.90;;;;;;5015174;28;20247;-77
2021/10/28 17:10:34;;;;;;;;;;;16.10;99.90;;;;;;5013588;28;19943;-77
2021/10/28 17:13:00;;;;;;;;;;;16.10;99.90;;;;;;5014966;28;19906;-78
2021/10/28 17:15:26;;;;;;;;;;;15.90;99.90;;;;;;5014869;28;19909;-76
2021/10/28 17:17:51;;;;;;;;;;;15.90;99.90;;;;;;5015009;28;19905;-78
2021/10/28 17:20:18;;;;;;;;;;;15.90;99.90;;;;;;5013561;28;19905;-77
2021/10/28 17:22:44;;;;;;;;;;;15.90;99.90;;;;;;5013703;28;19912;-77
2021/10/28 17:25:17;;;;;;;;;;;15.70;99.90;;;;;;5014762;28;19905;-76
2021/10/28 17:27:48;;;;;;;;;;;15.70;99.90;;;;;;5014865;28;20000;-77
2021/10/28 17:30:14;;;;;;;;;;;15.70;99.90;;;;;;5014770;28;20004;-76
2021/10/28 17:32:44;;;;;;;;;;;15.80;99.90;;;;;;5014846;28;19913;-77
2021/10/28 17:35:10;;;;;;;;;;;15.60;99.90;;;;;;5013199;28;19985;-78
2021/10/28 17:37:36;;;;;;;;;;;15.50;99.90;;;;;;5014502;28;19949;-77
2021/10/28 17:40:02;;;;;;;;;;;15.50;99.90;;;;;;5014447;28;19987;-78
2021/10/28 17:42:28;;;;;;;;;;;15.20;99.90;;;;;;5014548;28;19975;-77
2021/10/28 17:44:56;;;;;;;;;;;15.30;99.90;;;;;;5014440;28;20386;-77
2021/10/28 17:47:23;;;;;;;;;;;15.30;99.90;;;;;;5014396;28;20278;-77
2021/10/28 17:49:49;;;;;;;;;;;15.20;99.90;;;;;;5014768;28;20005;-78
2021/10/28 17:52:15;;;;;;;;;;;15.30;99.90;;;;;;5013043;28;19952;-77
2021/10/28 17:54:40;;;;;;;;;;;15.30;99.90;;;;;;5014366;28;19909;-77
2021/10/28 17:57:06;;;;;;;;;;;15.30;99.90;;;;;;5014216;28;19956;-78
2021/10/28 17:59:32;;;;;;;;;;;15.20;99.90;;;;;;5014214;28;19905;-78
2021/10/28 18:01:58;;;;;;;;;;;15.30;99.90;;;;;;5014362;28;19905;-78
2021/10/28 18:04:23;;;;;;;;;;;15.20;99.90;;;;;;5014101;28;19909;-76
2021/10/28 18:06:50;;;;;;;;;;;15.00;99.90;;;;;;5014165;28;20357;-77
2021/10/28 18:09:15;;;;;;;;;;;15.00;99.90;;;;;;5013734;28;20004;-78
2021/10/28 18:11:41;;;;;;;;;;;15.10;99.90;;;;;;5014089;28;19972;-77
2021/10/28 18:14:12;;;;;;;;;;;15.00;99.90;;;;;;5013982;28;19905;-78
2021/10/28 18:16:39;;;;;;;;;;;15.00;99.90;;;;;;5014106;28;19905;-78
2021/10/28 18:19:05;;;;;;;;;;;15.00;99.90;;;;;;5013975;28;19909;-78
2021/10/28 18:21:30;;;;;;;;;;;14.90;99.90;;;;;;5014392;28;19906;-78
2021/10/28 18:23:57;;;;;;;;;;;14.80;99.90;;;;;;5012662;28;19905;-77
2021/10/28 18:26:24;;;;;;;;;;;14.80;99.90;;;;;;5014081;28;20369;-77
2021/10/28 18:28:50;;;;;;;;;;;14.80;99.90;;;;;;5012540;28;19945;-76
2021/10/28 18:31:16;;;;;;;;;;;14.70;99.90;;;;;;5013806;28;19905;-76
2021/10/28 18:33:43;;;;;;;;;;;14.60;99.90;;;;;;5013797;28;19913;-78
2021/10/28 18:36:10;;;;;;;;;;;14.70;99.90;;;;;;5012477;28;19959;-77
2021/10/28 18:38:36;;;;;;;;;;;14.60;99.90;;;;;;5013706;28;19940;-78
2021/10/28 18:41:02;;;;;;;;;;;14.60;99.90;;;;;;5013734;28;19905;-78
2021/10/28 18:43:28;;;;;;;;;;;14.50;99.90;;;;;;5013728;28;19906;-78
2021/10/28 18:45:55;;;;;;;;;;;14.50;99.90;;;;;;5013880;28;19959;-78
2021/10/28 18:48:22;;;;;;;;;;;14.50;99.90;;;;;;5014333;28;20286;-77
2021/10/28 18:50:48;;;;;;;;;;;14.50;99.90;;;;;;5013769;28;19913;-77
2021/10/28 18:53:14;;;;;;;;;;;14.40;99.90;;;;;;5013617;28;19910;-78
2021/10/28 18:55:40;;;;;;;;;;;14.40;99.90;;;;;;5013970;28;20313;-77
2021/10/28 18:58:06;;;;;;;;;;;14.40;99.90;;;;;;5012272;28;19906;-77
2021/10/28 19:00:32;;;;;;;;;;;14.50;99.90;;;;;;5012225;28;19919;-78
2021/10/28 19:02:58;;;;;;;;;;;14.50;99.90;;;;;;5013662;28;19906;-78
2021/10/28 19:05:24;;;;;;;;;;;14.40;99.90;;;;;;5012216;28;19912;-77
2021/10/28 19:07:49;;;;;;;;;;;14.40;99.90;;;;;;5013509;28;19906;-77
2021/10/28 19:10:15;;;;;;;;;;;14.40;99.90;;;;;;5013272;28;20453;-77
2021/10/28 19:12:41;;;;;;;;;;;14.30;99.90;;;;;;5013657;28;19906;-77
2021/10/28 19:15:08;;;;;;;;;;;14.30;99.90;;;;;;5013674;28;20254;-78
2021/10/28 19:17:34;;;;;;;;;;;14.20;99.90;;;;;;5013370;28;19943;-77
2021/10/28 19:20:00;;;;;;;;;;;14.30;99.90;;;;;;5014796;28;20293;-78
2021/10/28 19:22:30;;;;;;;;;;;14.30;99.90;;;;;;5017050;28;19951;-78
2021/10/28 19:24:57;;;;;;;;;;;14.20;99.90;;;;;;5015706;28;19909;-77
2021/10/28 19:27:23;;;;;;;;;;;14.10;99.90;;;;;;5015617;28;20400;-78
2021/10/28 19:29:54;;;;;;;;;;;14.10;99.90;;;;;;5016864;28;19905;-77
2021/10/28 19:32:23;;;;;;;;;;;14.20;99.90;;;;;;5017074;28;19906;-77
2021/10/28 19:34:48;;;;;;;;;;;14.20;99.90;;;;;;5016851;28;19909;-77
2021/10/28 19:37:33;;;;;;;;;;;14.10;99.90;;;;;;5015458;28;19932;-77
2021/10/28 19:40:12;;;;;;;;;;;14.20;99.90;;;;;;5015385;28;20010;-77
2021/10/28 19:46:08;;;;;;;;;;;14.10;99.90;;;;;;5016680;28;20001;-77
2021/10/28 19:48:10;;;;;;;;;;;14.20;99.90;;;;;;5016321;28;19959;-77
2021/10/28 19:50:35;;;;;;;;;;;14.00;99.90;;;;;;5016526;28;19905;-77
2021/10/28 19:53:01;;;;;;;;;;;14.00;99.90;;;;;;5016509;28;19906;-77
2021/10/28 19:55:27;;;;;;;;;;;14.00;99.90;;;;;;5015079;28;19915;-77
2021/10/28 19:57:54;;;;;;;;;;;14.00;99.90;;;;;;5016513;28;19905;-78
2021/10/28 20:00:27;;;;;;;;;;;14.10;99.90;;;;;;5015029;28;19912;-79
2021/10/28 20:21:23;;;;;;;;;;;14.00;99.90;;;;;;5016153;28;20381;-77
2021/10/28 20:23:50;;;;;;;;;;;14.00;99.90;;;;;;5015872;28;19948;-76
2021/10/28 20:26:19;;;;;;;;;;;14.00;99.90;;;;;;5015964;28;19905;-77
2021/10/28 20:28:48;;;;;;;;;;;13.90;99.90;;;;;;5015827;28;20359;-78
2021/10/28 20:31:17;;;;;;;;;;;14.00;99.90;;;;;;5015578;28;19905;-78
2021/10/28 20:34:03;;;;;;;;;;;14.10;99.90;;;;;;5015675;28;19912;-78
2021/10/28 20:38:59;;;;;;;;;;;14.00;99.90;;;;;;5015444;28;19912;-77
2021/10/28 20:41:25;;;;;;;;;;;14.10;99.90;;;;;;5015537;28;20309;-78
2021/10/28 20:43:52;;;;;;;;;;;14.00;99.90;;;;;;5014217;28;19906;-77
2021/10/28 20:46:22;;;;;;;;;;;13.90;99.90;;;;;;5015534;28;19906;-78
2021/10/28 20:48:48;;;;;;;;;;;14.00;99.90;;;;;;5015994;28;19913;-77
2021/10/28 20:51:14;;;;;;;;;;;14.00;99.90;;;;;;5015352;28;19960;-78
2021/10/28 20:53:40;;;;;;;;;;;14.00;99.90;;;;;;5015260;28;19905;-77
2021/10/28 20:56:06;;;;;;;;;;;14.00;99.90;;;;;;5013923;28;19963;-77
2021/10/28 20:58:31;;;;;;;;;;;13.90;99.90;;;;;;5015228;28;19913;-77
2021/10/28 21:00:57;;;;;;;;;;;13.90;99.90;;;;;;5015176;28;20005;-77
2021/10/28 21:03:22;;;;;;;;;;;13.90;99.90;;;;;;5015482;28;20369;-77
2021/10/28 21:05:48;;;;;;;;;;;13.80;99.90;;;;;;5015254;28;19913;-78
2021/10/28 21:08:14;;;;;;;;;;;13.70;99.90;;;;;;5015197;28;20059;-77
2021/10/28 21:10:39;;;;;;;;;;;13.80;99.90;;;;;;5014638;28;19917;-78
2021/10/28 21:13:05;;;;;;;;;;;13.80;99.90;;;;;;5013767;28;20000;-78
2021/10/28 21:15:31;;;;;;;;;;;13.80;99.90;;;;;;5014920;28;19913;-78
2021/10/28 21:17:57;;;;;;;;;;;13.80;99.90;;;;;;5014956;28;19988;-78
2021/10/28 21:20:25;;;;;;;;;;;13.80;99.90;;;;;;5013715;28;20478;-78
2021/10/28 21:22:51;;;;;;;;;;;13.80;99.90;;;;;;5013568;28;20251;-79
2021/10/28 21:25:17;;;;;;;;;;;13.80;99.90;;;;;;5015071;28;19905;-78
2021/10/28 21:27:43;;;;;;;;;;;13.90;99.90;;;;;;5014844;28;19905;-78
2021/10/28 21:30:10;;;;;;;;;;;13.90;99.90;;;;;;5013480;28;19940;-77
2021/10/28 21:32:36;;;;;;;;;;;13.90;99.90;;;;;;5014729;28;19912;-78
2021/10/28 21:35:02;;;;;;;;;;;13.90;99.90;;;;;;5014562;28;20004;-78
2021/10/28 21:37:28;;;;;;;;;;;14.00;99.90;;;;;;5014643;28;19905;-78
2021/10/28 21:39:55;;;;;;;;;;;13.80;99.90;;;;;;5013204;28;19913;-78
2021/10/28 21:42:22;;;;;;;;;;;13.90;99.90;;;;;;5012480;28;20040;-78
2021/10/28 21:44:48;;;;;;;;;;;13.90;99.90;;;;;;5013211;28;19971;-77
2021/10/28 21:47:15;;;;;;;;;;;13.90;99.90;;;;;;5013164;28;20285;-77
2021/10/28 21:49:41;;;;;;;;;;;13.90;99.90;;;;;;5014639;28;19933;-77
2021/10/28 21:52:14;;;;;;;;;;;13.90;99.90;;;;;;5014454;28;20313;-76
2021/10/28 21:54:51;;;;;;;;;;;13.90;99.90;;;;;;5014236;28;19909;-78
2021/10/28 22:02:50;;;;;;;;;;;13.90;99.90;;;;;;5014501;28;19906;-77
2021/10/28 22:24:22;;;;;;;;;;;14.00;99.90;;;;;;5014000;28;20318;-77
2021/10/28 22:26:48;;;;;;;;;;;13.90;99.90;;;;;;5012349;28;20440;-77
2021/10/28 22:29:14;;;;;;;;;;;13.90;99.90;;;;;;5014013;28;19949;-78
2021/10/28 22:31:40;;;;;;;;;;;14.00;99.90;;;;;;5013942;28;19988;-77
2021/10/28 22:34:05;;;;;;;;;;;14.00;99.90;;;;;;5013913;28;19909;-78
2021/10/28 22:36:45;;;;;;;;;;;14.00;99.90;;;;;;5013720;28;19916;-78
2021/10/28 22:39:16;;;;;;;;;;;14.00;99.90;;;;;;5012358;28;20358;-78
2021/10/28 22:41:42;;;;;;;;;;;14.00;99.90;;;;;;5014059;28;20362;-77
2021/10/28 22:44:07;;;;;;;;;;;13.90;99.90;;;;;;5012428;28;19912;-77
2021/10/28 22:46:33;;;;;;;;;;;14.00;99.90;;;;;;5014201;28;19956;-77
2021/10/28 22:48:59;;;;;;;;;;;14.00;99.90;;;;;;5012441;28;19905;-77
2021/10/28 22:51:25;;;;;;;;;;;13.90;99.90;;;;;;5013707;28;19909;-77
2021/10/28 22:53:52;;;;;;;;;;;13.90;99.90;;;;;;5014811;28;19912;-77
2021/10/28 22:56:18;;;;;;;;;;;14.00;99.90;;;;;;5017502;28;19961;-77
2021/10/28 22:58:47;;;;;;;;;;;13.90;99.90;;;;;;5016291;28;19913;-78
2021/10/28 23:01:18;;;;;;;;;;;13.90;99.90;;;;;;5016211;28;19995;-77
2021/10/28 23:21:34;;;;;;;;;;;13.80;99.90;;;;;;5016834;28;19917;-78
2021/10/28 23:24:00;;;;;;;;;;;13.80;99.90;;;;;;5015755;28;20286;-78
2021/10/28 23:26:25;;;;;;;;;;;13.80;99.90;;;;;;5016988;28;20378;-78
2021/10/28 23:28:51;;;;;;;;;;;13.80;99.90;;;;;;5015630;28;19927;-77
2021/10/28 23:31:17;;;;;;;;;;;13.80;99.90;;;;;;5017148;28;19905;-77
2021/10/28 23:33:43;;;;;;;;;;;13.80;99.90;;;;;;5016907;28;20040;-78
2021/10/28 23:36:08;;;;;;;;;;;13.90;99.90;;;;;;5016733;28;19909;-77
2021/10/28 23:38:34;;;;;;;;;;;13.90;99.90;;;;;;5016761;28;19910;-78
2021/10/28 23:41:00;;;;;;;;;;;13.90;99.90;;;;;;5017038;28;19905;-77
2021/10/28 23:43:25;;;;;;;;;;;13.90;99.90;;;;;;5016645;28;19937;-77
2021/10/28 23:45:51;;;;;;;;;;;13.90;99.90;;;;;;5016700;28;19906;-78
2021/10/28 23:48:18;;;;;;;;;;;13.90;99.90;;;;;;5015344;28;19912;-77
2021/10/28 23:50:43;;;;;;;;;;;14.00;99.90;;;;;;5015286;28;20433;-78
2021/10/28 23:53:09;;;;;;;;;;;14.10;99.90;;;;;;5015213;28;19983;-78
2021/10/28 23:55:34;;;;;;;;;;;14.10;99.90;;;;;;5016464;28;19919;-78
2021/10/28 23:58:00;;;;;;;;;;;14.10;99.90;;;;;;5016379;28;19905;-78
